sensor_id;sensor_type;location;lat;lon;timestamp;pressure;altitude;pressure_sealevel;temperature;humidity
3968;BME280;9221;42.646;23.380;2023-11-21T00:00:09;94331.66;;;5.47;83.65
3968;BME280;9221;42.646;23.380;2023-11-21T00:02:36;94344.19;;;5.64;83.27
3968;BME280;9221;42.646;23.380;2023-11-21T00:05:05;94350.00;;;5.89;83.16
3968;BME280;9221;42.646;23.380;2023-11-21T00:07:33;94345.63;;;5.89;82.30
3968;BME280;9221;42.646;23.380;2023-11-21T00:09:58;94364.50;;;5.72;82.40
3968;BME280;9221;42.646;23.380;2023-11-21T00:12:24;94354.63;;;5.75;82.82
3968;BME280;9221;42.646;23.380;2023-11-21T00:14:50;94351.28;;;5.73;82.65
3968;BME280;9221;42.646;23.380;2023-11-21T00:17:15;94310.38;;;5.51;82.81
3968;BME280;9221;42.646;23.380;2023-11-21T00:19:41;94350.13;;;5.66;82.75
3968;BME280;9221;42.646;23.380;2023-11-21T00:22:08;94347.06;;;5.61;83.46
3968;BME280;9221;42.646;23.380;2023-11-21T00:24:34;94361.34;;;5.57;83.31
3968;BME280;9221;42.646;23.380;2023-11-21T00:27:00;94342.56;;;5.52;83.44
3968;BME280;9221;42.646;23.380;2023-11-21T00:29:25;94348.97;;;5.59;83.20
3968;BME280;9221;42.646;23.380;2023-11-21T00:31:51;94354.16;;;5.70;83.35
3968;BME280;9221;42.646;23.380;2023-11-21T00:34:16;94342.94;;;5.80;82.94
3968;BME280;9221;42.646;23.380;2023-11-21T00:36:42;94342.09;;;5.79;82.35
3968;BME280;9221;42.646;23.380;2023-11-21T00:39:07;94340.13;;;5.71;82.63
3968;BME280;9221;42.646;23.380;2023-11-21T00:41:34;94335.38;;;5.65;82.55
3968;BME280;9221;42.646;23.380;2023-11-21T00:44:00;94342.16;;;5.68;83.23
3968;BME280;9221;42.646;23.380;2023-11-21T00:46:26;94277.25;;;5.40;82.53
3968;BME280;9221;42.646;23.380;2023-11-21T00:48:54;94335.09;;;5.80;82.13
3968;BME280;9221;42.646;23.380;2023-11-21T00:51:20;94340.31;;;5.80;81.81
3968;BME280;9221;42.646;23.380;2023-11-21T00:53:45;94347.19;;;5.81;82.64
3968;BME280;9221;42.646;23.380;2023-11-21T00:56:11;94338.84;;;5.87;82.30
3968;BME280;9221;42.646;23.380;2023-11-21T00:58:37;94343.78;;;6.01;82.38
3968;BME280;9221;42.646;23.380;2023-11-21T01:01:02;94307.00;;;5.82;81.50
3968;BME280;9221;42.646;23.380;2023-11-21T01:03:28;94302.47;;;5.63;82.46
3968;BME280;9221;42.646;23.380;2023-11-21T01:05:54;94333.97;;;5.82;82.73
3968;BME280;9221;42.646;23.380;2023-11-21T01:08:19;94323.84;;;5.89;82.46
3968;BME280;9221;42.646;23.380;2023-11-21T01:10:45;94322.19;;;5.88;82.52
3968;BME280;9221;42.646;23.380;2023-11-21T01:13:10;94329.34;;;5.86;82.51
3968;BME280;9221;42.646;23.380;2023-11-21T01:15:36;94326.53;;;5.78;82.63
3968;BME280;9221;42.646;23.380;2023-11-21T01:18:01;94326.53;;;5.78;82.81
3968;BME280;9221;42.646;23.380;2023-11-21T01:20:27;94329.53;;;5.73;83.03
3968;BME280;9221;42.646;23.380;2023-11-21T01:22:52;94332.06;;;5.84;83.49
3968;BME280;9221;42.646;23.380;2023-11-21T01:25:19;94329.25;;;5.97;83.50
3968;BME280;9221;42.646;23.380;2023-11-21T01:27:46;94362.41;;;5.87;83.14
3968;BME280;9221;42.646;23.380;2023-11-21T01:30:12;94331.88;;;5.97;83.67
3968;BME280;9221;42.646;23.380;2023-11-21T01:32:38;94326.63;;;5.97;83.10
3968;BME280;9221;42.646;23.380;2023-11-21T01:35:05;94314.75;;;5.93;82.73
3968;BME280;9221;42.646;23.380;2023-11-21T01:37:32;94316.97;;;5.88;83.05
3968;BME280;9221;42.646;23.380;2023-11-21T01:39:58;94317.84;;;5.77;83.35
3968;BME280;9221;42.646;23.380;2023-11-21T01:42:24;94263.72;;;5.35;84.03
3968;BME280;9221;42.646;23.380;2023-11-21T01:44:50;94342.66;;;5.62;84.05
3968;BME280;9221;42.646;23.380;2023-11-21T01:47:16;94345.22;;;5.73;84.54
3968;BME280;9221;42.646;23.380;2023-11-21T01:49:45;94338.06;;;5.75;84.42
3968;BME280;9221;42.646;23.380;2023-11-21T01:52:12;94292.50;;;5.35;84.26
3968;BME280;9221;42.646;23.380;2023-11-21T01:54:38;94320.25;;;5.48;84.75
3968;BME280;9221;42.646;23.380;2023-11-21T01:57:04;94312.72;;;5.33;85.26
3968;BME280;9221;42.646;23.380;2023-11-21T01:59:36;94318.06;;;5.32;85.78
3968;BME280;9221;42.646;23.380;2023-11-21T02:02:05;94323.19;;;5.33;86.41
3968;BME280;9221;42.646;23.380;2023-11-21T02:04:35;94326.56;;;5.45;86.16
3968;BME280;9221;42.646;23.380;2023-11-21T02:07:04;94322.66;;;5.39;85.69
3968;BME280;9221;42.646;23.380;2023-11-21T02:09:33;94324.00;;;5.34;85.98
3968;BME280;9221;42.646;23.380;2023-11-21T02:12:00;94319.19;;;5.18;85.99
3968;BME280;9221;42.646;23.380;2023-11-21T02:14:26;94326.06;;;5.19;86.76
3968;BME280;9221;42.646;23.380;2023-11-21T02:16:53;94332.38;;;5.16;87.13
3968;BME280;9221;42.646;23.380;2023-11-21T02:19:20;94306.63;;;5.12;86.67
3968;BME280;9221;42.646;23.380;2023-11-21T02:21:53;94325.81;;;5.22;86.81
3968;BME280;9221;42.646;23.380;2023-11-21T02:24:22;94312.31;;;5.05;87.79
3968;BME280;9221;42.646;23.380;2023-11-21T02:26:48;94326.06;;;5.19;87.42
3968;BME280;9221;42.646;23.380;2023-11-21T02:29:17;94313.72;;;5.21;87.55
3968;BME280;9221;42.646;23.380;2023-11-21T02:31:44;94318.38;;;5.38;87.38
3968;BME280;9221;42.646;23.380;2023-11-21T02:34:17;94319.59;;;5.34;87.23
3968;BME280;9221;42.646;23.380;2023-11-21T02:36:46;94316.06;;;5.24;87.54
3968;BME280;9221;42.646;23.380;2023-11-21T02:39:15;94300.19;;;5.16;87.75
3968;BME280;9221;42.646;23.380;2023-11-21T02:41:42;94322.19;;;5.34;87.79
3968;BME280;9221;42.646;23.380;2023-11-21T02:44:07;94323.75;;;5.37;87.73
3968;BME280;9221;42.646;23.380;2023-11-21T02:46:33;94309.91;;;5.25;87.15
3968;BME280;9221;42.646;23.380;2023-11-21T02:49:00;94319.44;;;5.15;87.51
3968;BME280;9221;42.646;23.380;2023-11-21T02:51:26;94320.84;;;5.19;88.05
3968;BME280;9221;42.646;23.380;2023-11-21T02:53:51;94314.16;;;5.26;87.73
3968;BME280;9221;42.646;23.380;2023-11-21T02:56:17;94318.03;;;5.11;88.08
3968;BME280;9221;42.646;23.380;2023-11-21T02:58:43;94323.25;;;5.11;88.07
3968;BME280;9221;42.646;23.380;2023-11-21T03:01:10;94327.53;;;5.12;88.06
3968;BME280;9221;42.646;23.380;2023-11-21T03:03:39;94319.69;;;5.12;88.11
3968;BME280;9221;42.646;23.380;2023-11-21T03:06:06;94308.06;;;5.04;88.04
3968;BME280;9221;42.646;23.380;2023-11-21T03:08:32;94309.97;;;5.02;88.84
3968;BME280;9221;42.646;23.380;2023-11-21T03:10:57;94315.94;;;4.93;88.57
3968;BME280;9221;42.646;23.380;2023-11-21T03:13:23;94306.66;;;5.00;88.72
3968;BME280;9221;42.646;23.380;2023-11-21T03:15:48;94311.88;;;5.00;88.68
3968;BME280;9221;42.646;23.380;2023-11-21T03:18:14;94309.97;;;5.02;88.72
3968;BME280;9221;42.646;23.380;2023-11-21T03:20:39;94300.25;;;4.93;88.16
3968;BME280;9221;42.646;23.380;2023-11-21T03:23:05;94311.03;;;5.00;88.55
3968;BME280;9221;42.646;23.380;2023-11-21T03:25:30;94314.72;;;5.08;88.23
3968;BME280;9221;42.646;23.380;2023-11-21T03:27:56;94324.78;;;5.13;88.37
3968;BME280;9221;42.646;23.380;2023-11-21T03:30:22;94328.00;;;5.17;88.11
3968;BME280;9221;42.646;23.380;2023-11-21T03:32:47;94329.16;;;5.24;87.94
3968;BME280;9221;42.646;23.380;2023-11-21T03:35:13;94328.88;;;5.27;87.80
3968;BME280;9221;42.646;23.380;2023-11-21T03:37:38;94324.66;;;5.15;87.30
3968;BME280;9221;42.646;23.380;2023-11-21T03:40:07;94323.50;;;5.07;87.92
3968;BME280;9221;42.646;23.380;2023-11-21T03:42:34;94266.88;;;4.53;88.29
3968;BME280;9221;42.646;23.380;2023-11-21T03:44:59;94329.72;;;4.95;88.47
3968;BME280;9221;42.646;23.380;2023-11-21T03:47:26;94310.94;;;4.90;88.31
3968;BME280;9221;42.646;23.380;2023-11-21T03:49:51;94327.66;;;5.10;88.38
3968;BME280;9221;42.646;23.380;2023-11-21T03:52:17;94318.91;;;4.88;88.62
3968;BME280;9221;42.646;23.380;2023-11-21T03:54:42;94304.47;;;4.73;89.41
3968;BME280;9221;42.646;23.380;2023-11-21T03:57:08;94300.44;;;4.57;89.62
3968;BME280;9221;42.646;23.380;2023-11-21T03:59:34;94273.06;;;4.40;90.78
3968;BME280;9221;42.646;23.380;2023-11-21T04:02:00;94302.00;;;4.49;90.58
3968;BME280;9221;42.646;23.380;2023-11-21T04:04:25;94319.34;;;4.50;91.03
3968;BME280;9221;42.646;23.380;2023-11-21T04:06:51;94303.78;;;4.60;91.04
3968;BME280;9221;42.646;23.380;2023-11-21T04:09:17;94299.13;;;4.63;90.62
3968;BME280;9221;42.646;23.380;2023-11-21T04:11:42;94305.75;;;4.67;90.66
3968;BME280;9221;42.646;23.380;2023-11-21T04:14:10;94285.28;;;4.40;90.38
3968;BME280;9221;42.646;23.380;2023-11-21T04:16:36;94287.75;;;4.53;91.14
3968;BME280;9221;42.646;23.380;2023-11-21T04:19:01;94287.50;;;4.56;90.73
3968;BME280;9221;42.646;23.380;2023-11-21T04:21:27;94287.88;;;4.51;90.37
3968;BME280;9221;42.646;23.380;2023-11-21T04:23:52;94297.72;;;4.48;90.93
3968;BME280;9221;42.646;23.380;2023-11-21T04:26:18;94294.53;;;4.55;90.79
3968;BME280;9221;42.646;23.380;2023-11-21T04:28:43;94294.28;;;4.58;90.73
3968;BME280;9221;42.646;23.380;2023-11-21T04:31:09;94296.06;;;4.47;90.01
3968;BME280;9221;42.646;23.380;2023-11-21T04:33:35;94270.94;;;4.00;91.14
3968;BME280;9221;42.646;23.380;2023-11-21T04:36:00;94301.28;;;4.13;91.91
3968;BME280;9221;42.646;23.380;2023-11-21T04:38:26;94306.50;;;4.13;92.03
3968;BME280;9221;42.646;23.380;2023-11-21T04:40:51;94295.97;;;4.26;92.35
3968;BME280;9221;42.646;23.380;2023-11-21T04:43:17;94293.00;;;4.30;91.76
3968;BME280;9221;42.646;23.380;2023-11-21T04:45:42;94294.88;;;4.17;91.86
3968;BME280;9221;42.646;23.380;2023-11-21T04:48:08;94295.97;;;4.14;92.09
3968;BME280;9221;42.646;23.380;2023-11-21T04:50:34;94293.38;;;4.26;92.34
3968;BME280;9221;42.646;23.380;2023-11-21T04:52:59;94305.56;;;4.25;92.25
3968;BME280;9221;42.646;23.380;2023-11-21T04:55:25;94303.69;;;4.27;91.94
3968;BME280;9221;42.646;23.380;2023-11-21T04:57:53;94309.84;;;4.37;92.20
3968;BME280;9221;42.646;23.380;2023-11-21T05:00:19;94299.75;;;4.44;91.59
3968;BME280;9221;42.646;23.380;2023-11-21T05:02:45;94296.31;;;4.44;90.96
3968;BME280;9221;42.646;23.380;2023-11-21T05:05:10;94297.03;;;4.34;90.29
3968;BME280;9221;42.646;23.380;2023-11-21T05:07:36;94304.13;;;4.21;91.65
3968;BME280;9221;42.646;23.380;2023-11-21T05:10:04;94328.72;;;4.18;92.33
3968;BME280;9221;42.646;23.380;2023-11-21T05:12:33;94315.41;;;4.44;92.40
3968;BME280;9221;42.646;23.380;2023-11-21T05:15:03;94323.97;;;4.35;92.21
3968;BME280;9221;42.646;23.380;2023-11-21T05:17:33;94280.91;;;4.29;92.86
3968;BME280;9221;42.646;23.380;2023-11-21T05:19:59;94291.34;;;4.29;92.93
3968;BME280;9221;42.646;23.380;2023-11-21T05:22:29;94266.81;;;4.09;93.29
3968;BME280;9221;42.646;23.380;2023-11-21T05:24:54;94296.09;;;4.35;93.08
3968;BME280;9221;42.646;23.380;2023-11-21T05:27:20;94290.84;;;4.35;93.29
3968;BME280;9221;42.646;23.380;2023-11-21T05:29:45;94288.97;;;4.37;93.42
3968;BME280;9221;42.646;23.380;2023-11-21T05:32:10;94305.81;;;4.45;92.87
3968;BME280;9221;42.646;23.380;2023-11-21T05:34:36;94330.75;;;4.37;92.70
3968;BME280;9221;42.646;23.380;2023-11-21T05:37:01;94310.53;;;4.51;93.15
3968;BME280;9221;42.646;23.380;2023-11-21T05:39:27;94307.22;;;4.49;92.83
3968;BME280;9221;42.646;23.380;2023-11-21T05:41:53;94306.50;;;4.58;92.96
3968;BME280;9221;42.646;23.380;2023-11-21T05:47:03;94307.19;;;4.71;92.54
3968;BME280;9221;42.646;23.380;2023-11-21T05:49:29;94325.25;;;4.63;91.98
3968;BME280;9221;42.646;23.380;2023-11-21T05:51:56;94329.75;;;4.72;91.85
3968;BME280;9221;42.646;23.380;2023-11-21T05:54:21;94310.63;;;4.72;91.69
3968;BME280;9221;42.646;23.380;2023-11-21T05:56:47;94305.97;;;4.87;91.26
3968;BME280;9221;42.646;23.380;2023-11-21T05:59:14;94299.31;;;4.94;90.86
3968;BME280;9221;42.646;23.380;2023-11-21T06:01:40;94288.63;;;4.86;90.84
3968;BME280;9221;42.646;23.380;2023-11-21T06:04:05;94306.31;;;4.94;90.38
3968;BME280;9221;42.646;23.380;2023-11-21T06:06:31;94311.22;;;4.87;90.82
3968;BME280;9221;42.646;23.380;2023-11-21T06:08:57;94317.00;;;4.90;90.78
3968;BME280;9221;42.646;23.380;2023-11-21T06:11:22;94318.75;;;5.01;90.72
3968;BME280;9221;42.646;23.380;2023-11-21T06:13:48;94303.78;;;5.03;90.63
3968;BME280;9221;42.646;23.380;2023-11-21T06:16:14;94306.97;;;5.07;90.50
3968;BME280;9221;42.646;23.380;2023-11-21T06:18:42;94318.03;;;5.11;90.65
3968;BME280;9221;42.646;23.380;2023-11-21T06:21:11;94281.47;;;4.99;90.35
3968;BME280;9221;42.646;23.380;2023-11-21T06:23:37;94332.97;;;5.20;90.83
3968;BME280;9221;42.646;23.380;2023-11-21T06:26:02;94323.19;;;5.33;90.63
3968;BME280;9221;42.646;23.380;2023-11-21T06:28:29;94330.97;;;5.45;90.10
3968;BME280;9221;42.646;23.380;2023-11-21T06:30:56;94310.47;;;5.29;90.04
3968;BME280;9221;42.646;23.380;2023-11-21T06:33:22;94286.81;;;5.30;89.58
3968;BME280;9221;42.646;23.380;2023-11-21T06:35:47;94320.31;;;5.57;89.05
3968;BME280;9221;42.646;23.380;2023-11-21T06:38:13;94330.09;;;5.76;89.50
3968;BME280;9221;42.646;23.380;2023-11-21T06:40:38;94330.44;;;6.04;88.89
3968;BME280;9221;42.646;23.380;2023-11-21T06:43:04;94341.03;;;6.24;88.13
3968;BME280;9221;42.646;23.380;2023-11-21T06:45:32;94336.13;;;6.40;87.41
3968;BME280;9221;42.646;23.380;2023-11-21T06:47:57;94344.44;;;6.46;86.82
3968;BME280;9221;42.646;23.380;2023-11-21T06:50:23;94333.38;;;6.73;86.03
3968;BME280;9221;42.646;23.380;2023-11-21T06:52:48;94337.03;;;7.01;84.66
3968;BME280;9221;42.646;23.380;2023-11-21T06:55:14;94346.44;;;7.14;84.08
3968;BME280;9221;42.646;23.380;2023-11-21T06:57:39;94334.59;;;7.39;82.29
3968;BME280;9221;42.646;23.380;2023-11-21T07:00:05;94332.09;;;7.37;81.55
3968;BME280;9221;42.646;23.380;2023-11-21T07:02:34;94348.13;;;7.54;80.37
3968;BME280;9221;42.646;23.380;2023-11-21T07:04:59;94350.72;;;7.83;79.94
3968;BME280;9221;42.646;23.380;2023-11-21T07:07:25;94345.03;;;8.07;79.27
3968;BME280;9221;42.646;23.380;2023-11-21T07:09:50;94339.72;;;8.46;77.59
3968;BME280;9221;42.646;23.380;2023-11-21T07:12:17;94345.88;;;8.65;76.00
3968;BME280;9221;42.646;23.380;2023-11-21T07:14:43;94346.22;;;8.52;75.37
3968;BME280;9221;42.646;23.380;2023-11-21T07:17:13;94332.72;;;8.18;77.55
3968;BME280;9221;42.646;23.380;2023-11-21T07:19:38;94332.25;;;8.52;77.92
3968;BME280;9221;42.646;23.380;2023-11-21T07:22:04;94344.81;;;8.58;76.83
3968;BME280;9221;42.646;23.380;2023-11-21T07:24:31;94267.69;;;8.39;75.58
3968;BME280;9221;42.646;23.380;2023-11-21T07:26:57;94331.00;;;8.46;74.96
3968;BME280;9221;42.646;23.380;2023-11-21T07:29:25;94337.06;;;7.89;77.73
3968;BME280;9221;42.646;23.380;2023-11-21T07:31:52;94325.00;;;8.06;77.96
3968;BME280;9221;42.646;23.380;2023-11-21T07:34:21;94331.53;;;7.83;77.87
3968;BME280;9221;42.646;23.380;2023-11-21T07:36:47;94332.09;;;7.96;78.62
3968;BME280;9221;42.646;23.380;2023-11-21T07:39:13;94323.69;;;8.40;77.44
3968;BME280;9221;42.646;23.380;2023-11-21T07:41:40;94332.28;;;8.22;76.34
3968;BME280;9221;42.646;23.380;2023-11-21T07:44:10;94303.06;;;7.88;77.53
3968;BME280;9221;42.646;23.380;2023-11-21T07:46:35;94333.00;;;8.14;77.32
3968;BME280;9221;42.646;23.380;2023-11-21T07:49:01;94332.28;;;8.22;76.92
3968;BME280;9221;42.646;23.380;2023-11-21T07:51:26;94322.31;;;8.45;77.23
3968;BME280;9221;42.646;23.380;2023-11-21T07:53:52;94325.13;;;9.18;74.16
3968;BME280;9221;42.646;23.380;2023-11-21T07:56:18;94338.22;;;9.09;73.22
3968;BME280;9221;42.646;23.380;2023-11-21T07:58:43;94330.78;;;9.23;73.15
3968;BME280;9221;42.646;23.380;2023-11-21T08:01:10;94320.69;;;9.36;73.09
3968;BME280;9221;42.646;23.380;2023-11-21T08:03:35;94311.25;;;9.43;72.38
3968;BME280;9221;42.646;23.380;2023-11-21T08:06:01;94310.03;;;9.74;72.24
3968;BME280;9221;42.646;23.380;2023-11-21T08:08:28;94283.88;;;9.36;71.44
3968;BME280;9221;42.646;23.380;2023-11-21T08:10:54;94258.16;;;8.94;72.84
3968;BME280;9221;42.646;23.380;2023-11-21T08:13:23;94305.16;;;9.43;72.38
3968;BME280;9221;42.646;23.380;2023-11-21T08:15:49;94285.69;;;9.36;72.89
3968;BME280;9221;42.646;23.380;2023-11-21T08:18:14;94300.25;;;9.48;72.85
3968;BME280;9221;42.646;23.380;2023-11-21T08:20:41;94303.88;;;9.65;72.36
3968;BME280;9221;42.646;23.380;2023-11-21T08:23:07;94269.03;;;9.71;71.81
3968;BME280;9221;42.646;23.380;2023-11-21T08:25:32;94315.22;;;10.28;70.68
3968;BME280;9221;42.646;23.380;2023-11-21T08:28:00;94302.44;;;10.68;69.47
3968;BME280;9221;42.646;23.380;2023-11-21T08:30:25;94311.72;;;10.80;67.82
3968;BME280;9221;42.646;23.380;2023-11-21T08:32:53;94318.22;;;11.02;67.63
3968;BME280;9221;42.646;23.380;2023-11-21T08:35:19;94316.25;;;11.04;66.53
3968;BME280;9221;42.646;23.380;2023-11-21T08:37:44;94303.03;;;10.96;66.43
3968;BME280;9221;42.646;23.380;2023-11-21T08:40:10;94315.94;;;11.07;67.09
3968;BME280;9221;42.646;23.380;2023-11-21T08:42:37;94316.56;;;11.01;66.68
3968;BME280;9221;42.646;23.380;2023-11-21T08:45:04;94317.25;;;11.03;66.18
3968;BME280;9221;42.646;23.380;2023-11-21T08:47:34;94294.47;;;10.94;66.09
3968;BME280;9221;42.646;23.380;2023-11-21T08:49:59;94302.03;;;10.97;66.03
3968;BME280;9221;42.646;23.380;2023-11-21T08:52:25;94307.63;;;10.86;66.40
3968;BME280;9221;42.646;23.380;2023-11-21T08:54:50;94301.00;;;10.81;67.19
3968;BME280;9221;42.646;23.380;2023-11-21T08:57:25;94293.59;;;10.93;66.62
3968;BME280;9221;42.646;23.380;2023-11-21T08:59:51;94289.13;;;10.77;67.06
3968;BME280;9221;42.646;23.380;2023-11-21T09:02:25;94293.34;;;10.70;67.42
3968;BME280;9221;42.646;23.380;2023-11-21T09:04:51;94294.31;;;10.08;70.26
3968;BME280;9221;42.646;23.380;2023-11-21T09:07:18;94265.22;;;10.18;71.09
3968;BME280;9221;42.646;23.380;2023-11-21T09:09:46;94266.03;;;10.37;70.78
3968;BME280;9221;42.646;23.380;2023-11-21T09:12:12;94242.03;;;10.22;70.64
3968;BME280;9221;42.646;23.380;2023-11-21T09:14:38;94254.84;;;10.16;71.06
3968;BME280;9221;42.646;23.380;2023-11-21T09:17:04;94236.03;;;10.11;71.37
3968;BME280;9221;42.646;23.380;2023-11-21T09:19:36;94197.28;;;9.69;71.55
3968;BME280;9221;42.646;23.380;2023-11-21T09:22:02;94235.81;;;9.52;72.87
3968;BME280;9221;42.646;23.380;2023-11-21T09:24:27;94225.69;;;9.39;74.46
3968;BME280;9221;42.646;23.380;2023-11-21T09:26:53;94233.66;;;9.47;74.00
3968;BME280;9221;42.646;23.380;2023-11-21T09:29:18;94208.16;;;9.30;74.28
3968;BME280;9221;42.646;23.380;2023-11-21T09:31:44;94223.84;;;9.58;74.31
3968;BME280;9221;42.646;23.380;2023-11-21T09:34:10;94194.50;;;9.71;73.83
3968;BME280;9221;42.646;23.380;2023-11-21T09:36:36;94179.94;;;9.85;73.30
3968;BME280;9221;42.646;23.380;2023-11-21T09:39:04;94191.53;;;10.00;73.97
3968;BME280;9221;42.646;23.380;2023-11-21T09:41:50;94212.31;;;10.11;72.96
3968;BME280;9221;42.646;23.380;2023-11-21T09:44:24;94136.91;;;9.49;73.25
3968;BME280;9221;42.646;23.380;2023-11-21T09:46:53;94177.63;;;9.81;74.16
3968;BME280;9221;42.646;23.380;2023-11-21T09:49:23;94183.91;;;9.89;74.19
3968;BME280;9221;42.646;23.380;2023-11-21T09:51:54;94190.81;;;9.63;74.46
3968;BME280;9221;42.646;23.380;2023-11-21T09:54:21;94158.19;;;9.56;74.53
3968;BME280;9221;42.646;23.380;2023-11-21T09:56:47;94144.44;;;9.97;75.08
3968;BME280;9221;42.646;23.380;2023-11-21T09:59:14;94142.50;;;10.15;72.97
3968;BME280;9221;42.646;23.380;2023-11-21T10:01:41;94143.22;;;10.26;72.09
3968;BME280;9221;42.646;23.380;2023-11-21T10:04:08;94124.22;;;9.71;73.40
3968;BME280;9221;42.646;23.380;2023-11-21T10:06:40;94137.56;;;9.43;74.39
3968;BME280;9221;42.646;23.380;2023-11-21T10:09:10;94119.91;;;9.36;75.63
3968;BME280;9221;42.646;23.380;2023-11-21T10:11:40;94132.84;;;9.81;74.38
3968;BME280;9221;42.646;23.380;2023-11-21T10:14:08;94124.91;;;9.73;73.83
3968;BME280;9221;42.646;23.380;2023-11-21T10:16:36;94121.09;;;10.02;74.06
3968;BME280;9221;42.646;23.380;2023-11-21T10:19:04;94136.38;;;10.41;72.72
3968;BME280;9221;42.646;23.380;2023-11-21T10:21:32;94105.81;;;10.73;71.49
3968;BME280;9221;42.646;23.380;2023-11-21T10:23:58;94115.22;;;11.09;70.04
3968;BME280;9221;42.646;23.380;2023-11-21T10:26:26;94129.72;;;11.38;68.99
3968;BME280;9221;42.646;23.380;2023-11-21T10:28:58;94108.25;;;11.57;67.77
3968;BME280;9221;42.646;23.380;2023-11-21T10:31:27;94100.41;;;11.80;67.20
3968;BME280;9221;42.646;23.380;2023-11-21T10:33:53;94104.03;;;11.96;66.62
3968;BME280;9221;42.646;23.380;2023-11-21T10:36:26;94093.63;;;11.86;65.32
3968;BME280;9221;42.646;23.380;2023-11-21T10:38:52;94088.09;;;12.12;64.99
3968;BME280;9221;42.646;23.380;2023-11-21T10:41:19;94102.63;;;12.25;64.35
3968;BME280;9221;42.646;23.380;2023-11-21T10:43:45;94089.31;;;12.41;64.05
3968;BME280;9221;42.646;23.380;2023-11-21T10:46:10;94076.41;;;12.38;63.67
3968;BME280;9221;42.646;23.380;2023-11-21T10:48:36;94083.78;;;12.51;63.57
3968;BME280;9221;42.646;23.380;2023-11-21T10:51:11;94084.28;;;12.46;63.40
3968;BME280;9221;42.646;23.380;2023-11-21T10:53:40;94085.94;;;12.47;63.21
3968;BME280;9221;42.646;23.380;2023-11-21T10:56:08;94081.03;;;12.44;63.41
3968;BME280;9221;42.646;23.380;2023-11-21T10:58:37;94086.41;;;12.28;63.02
3968;BME280;9221;42.646;23.380;2023-11-21T11:01:06;94082.81;;;12.21;64.01
3968;BME280;9221;42.646;23.380;2023-11-21T11:03:32;94077.53;;;12.21;64.03
3968;BME280;9221;42.646;23.380;2023-11-21T11:05:59;94081.19;;;12.11;64.27
3968;BME280;9221;42.646;23.380;2023-11-21T11:08:26;94076.84;;;12.18;64.66
3968;BME280;9221;42.646;23.380;2023-11-21T11:10:52;94066.47;;;12.17;64.68
3968;BME280;9221;42.646;23.380;2023-11-21T11:13:18;94074.16;;;12.27;64.31
3968;BME280;9221;42.646;23.380;2023-11-21T11:15:47;94061.94;;;12.26;63.96
3968;BME280;9221;42.646;23.380;2023-11-21T11:18:13;94066.53;;;12.32;63.74
3968;BME280;9221;42.646;23.380;2023-11-21T11:20:41;94056.97;;;12.31;63.52
3968;BME280;9221;42.646;23.380;2023-11-21T11:28:15;94035.28;;;12.04;64.92
3968;BME280;9221;42.646;23.380;2023-11-21T11:31:05;93977.00;;;11.66;65.12
3968;BME280;9221;42.646;23.380;2023-11-21T11:33:43;94043.31;;;11.71;65.61
3968;BME280;9221;42.646;23.380;2023-11-21T11:36:18;94021.16;;;11.80;65.67
3968;BME280;9221;42.646;23.380;2023-11-21T11:38:47;94021.84;;;11.82;65.43
3968;BME280;9221;42.646;23.380;2023-11-21T11:41:30;93986.50;;;11.75;65.39
3968;BME280;9221;42.646;23.380;2023-11-21T11:44:00;94009.09;;;11.86;65.29
3968;BME280;9221;42.646;23.380;2023-11-21T11:46:42;94001.66;;;11.90;65.41
3968;BME280;9221;42.646;23.380;2023-11-21T11:49:07;94001.34;;;11.84;65.02
3968;BME280;9221;42.646;23.380;2023-11-21T11:51:33;94014.50;;;11.93;65.54
3968;BME280;9221;42.646;23.380;2023-11-21T11:54:01;94011.63;;;11.71;65.90
3968;BME280;9221;42.646;23.380;2023-11-21T11:56:31;94030.88;;;11.96;66.31
3968;BME280;9221;42.646;23.380;2023-11-21T11:59:02;94015.84;;;11.89;66.05
3968;BME280;9221;42.646;23.380;2023-11-21T12:01:28;94036.63;;;11.92;66.27
3968;BME280;9221;42.646;23.380;2023-11-21T12:06:45;94019.66;;;11.86;66.34
3968;BME280;9221;42.646;23.380;2023-11-21T12:09:21;94016.28;;;11.69;67.08
3968;BME280;9221;42.646;23.380;2023-11-21T12:11:48;93981.88;;;11.46;67.39
3968;BME280;9221;42.646;23.380;2023-11-21T12:14:15;94024.50;;;11.74;67.53
3968;BME280;9221;42.646;23.380;2023-11-21T12:16:41;94022.88;;;11.65;68.63
3968;BME280;9221;42.646;23.380;2023-11-21T12:19:09;94037.78;;;11.58;69.00
3968;BME280;9221;42.646;23.380;2023-11-21T12:21:36;94004.50;;;11.40;69.84
3968;BME280;9221;42.646;23.380;2023-11-21T12:24:02;94036.31;;;11.47;70.34
3968;BME280;9221;42.646;23.380;2023-11-21T12:26:28;94031.50;;;11.50;70.83
3968;BME280;9221;42.646;23.380;2023-11-21T12:28:54;94029.19;;;11.56;71.84
3968;BME280;9221;42.646;23.380;2023-11-21T12:31:23;94019.47;;;11.48;71.90
3968;BME280;9221;42.646;23.380;2023-11-21T12:33:48;94031.16;;;11.54;72.38
3968;BME280;9221;42.646;23.380;2023-11-21T12:36:14;94039.41;;;11.59;71.46
3968;BME280;9221;42.646;23.380;2023-11-21T12:38:40;94037.09;;;11.56;70.89
3968;BME280;9221;42.646;23.380;2023-11-21T12:41:06;94038.78;;;11.48;70.83
3968;BME280;9221;42.646;23.380;2023-11-21T12:43:31;94050.34;;;11.39;70.40
3968;BME280;9221;42.646;23.380;2023-11-21T12:46:07;94026.13;;;11.27;70.90
3968;BME280;9221;42.646;23.380;2023-11-21T12:48:37;94033.56;;;11.24;71.37
3968;BME280;9221;42.646;23.380;2023-11-21T12:51:05;94024.66;;;11.16;70.94
3968;BME280;9221;42.646;23.380;2023-11-21T12:53:32;94011.47;;;11.08;70.94
3968;BME280;9221;42.646;23.380;2023-11-21T12:56:05;94021.38;;;11.14;72.47
3968;BME280;9221;42.646;23.380;2023-11-21T12:58:31;94002.91;;;11.14;72.20
3968;BME280;9221;42.646;23.380;2023-11-21T13:00:59;93986.41;;;11.12;72.99
3968;BME280;9221;42.646;23.380;2023-11-21T13:03:24;93984.78;;;11.11;73.79
3968;BME280;9221;42.646;23.380;2023-11-21T13:05:51;93977.19;;;11.00;73.31
3968;BME280;9221;42.646;23.380;2023-11-21T13:08:21;93992.25;;;10.83;73.75
3968;BME280;9221;42.646;23.380;2023-11-21T13:10:55;93997.34;;;10.76;73.98
3968;BME280;9221;42.646;23.380;2023-11-21T13:13:22;93988.78;;;10.91;74.39
3968;BME280;9221;42.646;23.380;2023-11-21T13:15:53;93986.44;;;10.96;75.08
3968;BME280;9221;42.646;23.380;2023-11-21T13:18:23;93986.13;;;10.99;75.12
3968;BME280;9221;42.646;23.380;2023-11-21T13:20:49;93985.78;;;11.02;75.32
3968;BME280;9221;42.646;23.380;2023-11-21T13:23:15;93986.91;;;11.08;75.33
3968;BME280;9221;42.646;23.380;2023-11-21T13:25:44;93990.72;;;11.05;74.79